sensor_id;sensor_type;location;lat;lon;timestamp;temperature;humidity
12438;DHT22;6283;51.330;12.374;2023-08-20T00:00:25;26.30;1.00
12438;DHT22;6283;51.330;12.374;2023-08-20T00:03:04;26.30;1.00
12438;DHT22;6283;51.330;12.374;2023-08-20T00:05:34;26.20;1.00
12438;DHT22;6283;51.330;12.374;2023-08-20T00:08:00;26.20;1.00
12438;DHT22;6283;51.330;12.374;2023-08-20T00:10:26;26.10;1.00
12438;DHT22;6283;51.330;12.374;2023-08-20T00:12:51;26.10;1.00
12438;DHT22;6283;51.330;12.374;2023-08-20T00:15:17;26.10;1.00
12438;DHT22;6283;51.330;12.374;2023-08-20T00:17:45;26.00;1.00
12438;DHT22;6283;51.330;12.374;2023-08-20T00:20:11;26.00;1.00
12438;DHT22;6283;51.330;12.374;2023-08-20T00:22:41;26.00;1.00
12438;DHT22;6283;51.330;12.374;2023-08-20T00:25:11;25.90;1.00
12438;DHT22;6283;51.330;12.374;2023-08-20T00:27:38;25.90;1.00
12438;DHT22;6283;51.330;12.374;2023-08-20T00:30:04;25.80;1.00
12438;DHT22;6283;51.330;12.374;2023-08-20T00:32:30;25.80;1.00
12438;DHT22;6283;51.330;12.374;2023-08-20T00:34:56;25.70;1.00
12438;DHT22;6283;51.330;12.374;2023-08-20T00:37:21;25.70;1.00
12438;DHT22;6283;51.330;12.374;2023-08-20T00:39:47;25.60;1.00
12438;DHT22;6283;51.330;12.374;2023-08-20T00:42:13;25.50;1.00
12438;DHT22;6283;51.330;12.374;2023-08-20T00:44:40;25.50;1.00
12438;DHT22;6283;51.330;12.374;2023-08-20T00:47:07;25.40;1.00
12438;DHT22;6283;51.330;12.374;2023-08-20T00:49:34;25.30;1.00
12438;DHT22;6283;51.330;12.374;2023-08-20T00:52:00;25.30;1.00
12438;DHT22;6283;51.330;12.374;2023-08-20T00:54:26;25.20;1.00
12438;DHT22;6283;51.330;12.374;2023-08-20T00:56:53;25.20;1.00
12438;DHT22;6283;51.330;12.374;2023-08-20T00:59:19;25.10;1.00
12438;DHT22;6283;51.330;12.374;2023-08-20T01:01:45;25.00;5.90
12438;DHT22;6283;51.330;12.374;2023-08-20T01:04:11;25.00;16.40
12438;DHT22;6283;51.330;12.374;2023-08-20T01:06:45;25.00;30.00
12438;DHT22;6283;51.330;12.374;2023-08-20T01:09:23;24.90;49.30
12438;DHT22;6283;51.330;12.374;2023-08-20T01:12:00;24.90;72.80
12438;DHT22;6283;51.330;12.374;2023-08-20T01:14:27;24.80;93.40
12438;DHT22;6283;51.330;12.374;2023-08-20T01:16:53;24.80;99.90
12438;DHT22;6283;51.330;12.374;2023-08-20T01:19:20;24.70;99.90
12438;DHT22;6283;51.330;12.374;2023-08-20T01:22:21;24.70;99.90
12438;DHT22;6283;51.330;12.374;2023-08-20T01:30:14;24.60;99.90
12438;DHT22;6283;51.330;12.374;2023-08-20T01:32:41;24.50;99.90
12438;DHT22;6283;51.330;12.374;2023-08-20T01:35:13;24.50;99.90
12438;DHT22;6283;51.330;12.374;2023-08-20T01:37:39;24.50;99.90
12438;DHT22;6283;51.330;12.374;2023-08-20T01:40:06;24.50;99.90
12438;DHT22;6283;51.330;12.374;2023-08-20T01:42:33;24.40;99.90
12438;DHT22;6283;51.330;12.374;2023-08-20T01:44:58;24.40;99.90
12438;DHT22;6283;51.330;12.374;2023-08-20T01:47:24;24.40;99.90
12438;DHT22;6283;51.330;12.374;2023-08-20T01:49:49;24.40;99.90
12438;DHT22;6283;51.330;12.374;2023-08-20T01:52:15;24.40;99.90
12438;DHT22;6283;51.330;12.374;2023-08-20T01:54:41;24.30;99.90
12438;DHT22;6283;51.330;12.374;2023-08-20T01:57:06;24.30;99.90
12438;DHT22;6283;51.330;12.374;2023-08-20T01:59:32;24.20;99.90
12438;DHT22;6283;51.330;12.374;2023-08-20T02:01:57;24.20;99.90
12438;DHT22;6283;51.330;12.374;2023-08-20T02:04:23;24.10;99.90
12438;DHT22;6283;51.330;12.374;2023-08-20T02:06:48;24.10;99.90
12438;DHT22;6283;51.330;12.374;2023-08-20T02:09:14;24.00;1.00
12438;DHT22;6283;51.330;12.374;2023-08-20T02:11:40;24.00;1.00
12438;DHT22;6283;51.330;12.374;2023-08-20T02:14:05;24.00;1.00
12438;DHT22;6283;51.330;12.374;2023-08-20T02:16:31;23.90;1.00
12438;DHT22;6283;51.330;12.374;2023-08-20T02:18:57;23.80;1.00
12438;DHT22;6283;51.330;12.374;2023-08-20T02:21:23;23.80;1.00
12438;DHT22;6283;51.330;12.374;2023-08-20T02:23:48;23.70;1.00
12438;DHT22;6283;51.330;12.374;2023-08-20T02:26:14;23.70;1.00
12438;DHT22;6283;51.330;12.374;2023-08-20T02:28:40;23.70;1.00
12438;DHT22;6283;51.330;12.374;2023-08-20T02:31:06;23.70;79.10
12438;DHT22;6283;51.330;12.374;2023-08-20T02:33:31;23.60;99.90
12438;DHT22;6283;51.330;12.374;2023-08-20T02:36:02;23.60;99.90
12438;DHT22;6283;51.330;12.374;2023-08-20T02:38:28;23.60;99.90
12438;DHT22;6283;51.330;12.374;2023-08-20T02:40:54;23.60;99.90
12438;DHT22;6283;51.330;12.374;2023-08-20T02:43:19;23.60;99.90
12438;DHT22;6283;51.330;12.374;2023-08-20T02:45:45;23.50;99.90
12438;DHT22;6283;51.330;12.374;2023-08-20T02:48:11;23.50;99.90
12438;DHT22;6283;51.330;12.374;2023-08-20T02:50:37;23.50;99.90
12438;DHT22;6283;51.330;12.374;2023-08-20T02:53:03;23.50;1.00
12438;DHT22;6283;51.330;12.374;2023-08-20T02:55:30;23.50;1.00
12438;DHT22;6283;51.330;12.374;2023-08-20T02:57:57;23.40;1.00
12438;DHT22;6283;51.330;12.374;2023-08-20T03:00:22;23.40;1.00
12438;DHT22;6283;51.330;12.374;2023-08-20T03:02:48;23.40;1.00
12438;DHT22;6283;51.330;12.374;2023-08-20T03:05:13;23.40;1.00
12438;DHT22;6283;51.330;12.374;2023-08-20T03:07:39;23.30;52.40
12438;DHT22;6283;51.330;12.374;2023-08-20T03:10:05;23.30;78.60
12438;DHT22;6283;51.330;12.374;2023-08-20T03:12:31;23.30;99.90
12438;DHT22;6283;51.330;12.374;2023-08-20T03:14:58;23.30;99.90
12438;DHT22;6283;51.330;12.374;2023-08-20T03:17:24;23.30;99.90
12438;DHT22;6283;51.330;12.374;2023-08-20T03:19:58;23.30;99.90
12438;DHT22;6283;51.330;12.374;2023-08-20T03:22:25;23.20;99.90
12438;DHT22;6283;51.330;12.374;2023-08-20T03:24:51;23.20;1.00
12438;DHT22;6283;51.330;12.374;2023-08-20T03:27:17;23.20;1.00
12438;DHT22;6283;51.330;12.374;2023-08-20T03:29:43;23.20;1.00
12438;DHT22;6283;51.330;12.374;2023-08-20T03:32:09;23.20;1.00
12438;DHT22;6283;51.330;12.374;2023-08-20T03:34:34;23.20;1.00
12438;DHT22;6283;51.330;12.374;2023-08-20T03:37:01;23.20;99.90
12438;DHT22;6283;51.330;12.374;2023-08-20T03:39:26;23.30;99.90
12438;DHT22;6283;51.330;12.374;2023-08-20T03:41:53;23.20;99.90
12438;DHT22;6283;51.330;12.374;2023-08-20T03:44:19;23.20;99.90
12438;DHT22;6283;51.330;12.374;2023-08-20T03:46:44;23.20;99.90
12438;DHT22;6283;51.330;12.374;2023-08-20T03:49:10;23.20;99.90
12438;DHT22;6283;51.330;12.374;2023-08-20T03:51:36;23.10;99.90
12438;DHT22;6283;51.330;12.374;2023-08-20T03:54:02;23.10;1.00
12438;DHT22;6283;51.330;12.374;2023-08-20T03:56:27;23.00;1.00
12438;DHT22;6283;51.330;12.374;2023-08-20T03:58:53;23.00;1.00
12438;DHT22;6283;51.330;12.374;2023-08-20T04:01:19;23.00;1.00
12438;DHT22;6283;51.330;12.374;2023-08-20T04:03:48;23.00;99.90
12438;DHT22;6283;51.330;12.374;2023-08-20T04:06:14;22.70;1.00
12438;DHT22;6283;51.330;12.374;2023-08-20T04:08:40;22.50;99.90
12438;DHT22;6283;51.330;12.374;2023-08-20T04:11:05;22.30;99.90
12438;DHT22;6283;51.330;12.374;2023-08-20T04:13:31;22.10;99.90
12438;DHT22;6283;51.330;12.374;2023-08-20T04:15:57;21.90;99.90
12438;DHT22;6283;51.330;12.374;2023-08-20T04:18:23;21.80;1.00
12438;DHT22;6283;51.330;12.374;2023-08-20T04:20:52;21.70;1.00
12438;DHT22;6283;51.330;12.374;2023-08-20T04:23:18;21.70;1.00
12438;DHT22;6283;51.330;12.374;2023-08-20T04:25:44;21.60;1.00
12438;DHT22;6283;51.330;12.374;2023-08-20T04:28:12;21.50;1.00
12438;DHT22;6283;51.330;12.374;2023-08-20T04:30:37;21.60;1.00
12438;DHT22;6283;51.330;12.374;2023-08-20T04:33:03;21.50;1.00
12438;DHT22;6283;51.330;12.374;2023-08-20T04:35:29;21.50;1.00
12438;DHT22;6283;51.330;12.374;2023-08-20T04:37:55;21.50;1.00
12438;DHT22;6283;51.330;12.374;2023-08-20T04:40:20;21.50;1.00
12438;DHT22;6283;51.330;12.374;2023-08-20T04:42:46;21.50;1.00
12438;DHT22;6283;51.330;12.374;2023-08-20T04:45:12;21.50;1.00
12438;DHT22;6283;51.330;12.374;2023-08-20T04:47:38;21.50;1.00
12438;DHT22;6283;51.330;12.374;2023-08-20T04:50:04;21.50;1.00
12438;DHT22;6283;51.330;12.374;2023-08-20T04:52:33;21.50;1.00
12438;DHT22;6283;51.330;12.374;2023-08-20T04:54:59;21.50;1.00
12438;DHT22;6283;51.330;12.374;2023-08-20T04:57:25;21.50;1.00
12438;DHT22;6283;51.330;12.374;2023-08-20T04:59:50;21.40;1.00
12438;DHT22;6283;51.330;12.374;2023-08-20T05:02:16;21.40;1.00
12438;DHT22;6283;51.330;12.374;2023-08-20T05:04:42;21.40;1.00
12438;DHT22;6283;51.330;12.374;2023-08-20T05:07:07;21.40;1.00
12438;DHT22;6283;51.330;12.374;2023-08-20T05:09:33;21.40;1.00
12438;DHT22;6283;51.330;12.374;2023-08-20T05:11:59;21.40;1.00
12438;DHT22;6283;51.330;12.374;2023-08-20T05:14:25;21.40;1.00
12438;DHT22;6283;51.330;12.374;2023-08-20T05:16:50;21.40;1.00
12438;DHT22;6283;51.330;12.374;2023-08-20T05:19:16;21.40;1.00
12438;DHT22;6283;51.330;12.374;2023-08-20T05:21:41;21.50;1.00
12438;DHT22;6283;51.330;12.374;2023-08-20T05:24:07;21.50;1.00
12438;DHT22;6283;51.330;12.374;2023-08-20T05:26:34;21.50;1.00
12438;DHT22;6283;51.330;12.374;2023-08-20T05:28:59;21.50;1.00
12438;DHT22;6283;51.330;12.374;2023-08-20T05:31:25;21.60;1.00
12438;DHT22;6283;51.330;12.374;2023-08-20T05:33:50;21.60;1.00
12438;DHT22;6283;51.330;12.374;2023-08-20T05:36:16;21.60;1.00
12438;DHT22;6283;51.330;12.374;2023-08-20T05:38:42;21.70;1.00
12438;DHT22;6283;51.330;12.374;2023-08-20T05:41:08;21.70;1.00
12438;DHT22;6283;51.330;12.374;2023-08-20T05:43:34;21.70;1.00
12438;DHT22;6283;51.330;12.374;2023-08-20T05:46:02;21.70;1.00
12438;DHT22;6283;51.330;12.374;2023-08-20T05:48:28;21.70;1.00
12438;DHT22;6283;51.330;12.374;2023-08-20T05:50:53;21.70;1.00
12438;DHT22;6283;51.330;12.374;2023-08-20T05:53:19;21.80;1.00
12438;DHT22;6283;51.330;12.374;2023-08-20T05:55:44;22.00;1.00
12438;DHT22;6283;51.330;12.374;2023-08-20T05:58:10;22.00;1.00
12438;DHT22;6283;51.330;12.374;2023-08-20T06:00:36;22.10;1.00
12438;DHT22;6283;51.330;12.374;2023-08-20T06:03:02;22.10;1.00
12438;DHT22;6283;51.330;12.374;2023-08-20T06:05:27;22.10;1.00
12438;DHT22;6283;51.330;12.374;2023-08-20T06:07:53;22.20;1.00
12438;DHT22;6283;51.330;12.374;2023-08-20T06:10:18;22.20;1.00
12438;DHT22;6283;51.330;12.374;2023-08-20T06:12:44;22.20;1.00
12438;DHT22;6283;51.330;12.374;2023-08-20T06:15:10;22.20;1.00
12438;DHT22;6283;51.330;12.374;2023-08-20T06:17:35;22.20;1.00
12438;DHT22;6283;51.330;12.374;2023-08-20T06:20:01;22.30;1.00
12438;DHT22;6283;51.330;12.374;2023-08-20T06:22:26;22.30;1.00
12438;DHT22;6283;51.330;12.374;2023-08-20T06:24:52;22.30;1.00
12438;DHT22;6283;51.330;12.374;2023-08-20T06:27:18;22.30;1.00
12438;DHT22;6283;51.330;12.374;2023-08-20T06:29:43;22.40;1.00
12438;DHT22;6283;51.330;12.374;2023-08-20T06:32:09;22.50;1.00
12438;DHT22;6283;51.330;12.374;2023-08-20T06:34:34;22.60;1.00
12438;DHT22;6283;51.330;12.374;2023-08-20T06:37:01;22.70;1.00
12438;DHT22;6283;51.330;12.374;2023-08-20T06:39:27;22.70;1.00
12438;DHT22;6283;51.330;12.374;2023-08-20T06:41:53;22.80;99.90
12438;DHT22;6283;51.330;12.374;2023-08-20T06:44:18;22.70;99.90
12438;DHT22;6283;51.330;12.374;2023-08-20T06:46:44;22.80;99.90
12438;DHT22;6283;51.330;12.374;2023-08-20T06:49:09;22.80;99.90
12438;DHT22;6283;51.330;12.374;2023-08-20T06:51:35;22.80;99.90
12438;DHT22;6283;51.330;12.374;2023-08-20T06:54:02;22.90;99.90
12438;DHT22;6283;51.330;12.374;2023-08-20T06:56:27;22.90;99.90
12438;DHT22;6283;51.330;12.374;2023-08-20T06:58:53;22.90;99.90
12438;DHT22;6283;51.330;12.374;2023-08-20T07:01:19;22.90;99.90
12438;DHT22;6283;51.330;12.374;2023-08-20T07:03:45;23.00;99.90
12438;DHT22;6283;51.330;12.374;2023-08-20T07:06:11;23.10;99.90
12438;DHT22;6283;51.330;12.374;2023-08-20T07:08:37;23.20;99.90
12438;DHT22;6283;51.330;12.374;2023-08-20T07:11:04;23.30;99.90
12438;DHT22;6283;51.330;12.374;2023-08-20T07:13:30;23.30;99.90
12438;DHT22;6283;51.330;12.374;2023-08-20T07:15:56;23.40;99.90
12438;DHT22;6283;51.330;12.374;2023-08-20T07:18:22;23.50;99.90
12438;DHT22;6283;51.330;12.374;2023-08-20T07:20:47;23.50;99.90
12438;DHT22;6283;51.330;12.374;2023-08-20T07:23:13;23.60;99.90
12438;DHT22;6283;51.330;12.374;2023-08-20T07:25:40;23.70;99.90
12438;DHT22;6283;51.330;12.374;2023-08-20T07:28:07;23.90;72.20
12438;DHT22;6283;51.330;12.374;2023-08-20T07:30:32;24.00;1.00
12438;DHT22;6283;51.330;12.374;2023-08-20T07:32:58;24.20;1.00
12438;DHT22;6283;51.330;12.374;2023-08-20T07:35:24;24.30;1.00
12438;DHT22;6283;51.330;12.374;2023-08-20T07:37:50;24.40;1.00
12438;DHT22;6283;51.330;12.374;2023-08-20T07:40:16;24.50;99.90
12438;DHT22;6283;51.330;12.374;2023-08-20T07:42:42;24.60;99.90
12438;DHT22;6283;51.330;12.374;2023-08-20T07:45:09;24.80;99.90
12438;DHT22;6283;51.330;12.374;2023-08-20T07:47:38;24.90;1.00
12438;DHT22;6283;51.330;12.374;2023-08-20T07:50:04;24.90;99.90
12438;DHT22;6283;51.330;12.374;2023-08-20T07:52:31;24.90;1.00
12438;DHT22;6283;51.330;12.374;2023-08-20T07:54:56;24.80;1.00
12438;DHT22;6283;51.330;12.374;2023-08-20T07:57:22;24.70;1.00
12438;DHT22;6283;51.330;12.374;2023-08-20T07:59:49;24.60;99.90
12438;DHT22;6283;51.330;12.374;2023-08-20T08:02:15;24.60;99.90
12438;DHT22;6283;51.330;12.374;2023-08-20T08:04:42;24.50;99.90
12438;DHT22;6283;51.330;12.374;2023-08-20T08:07:09;24.50;99.90
12438;DHT22;6283;51.330;12.374;2023-08-20T08:09:35;24.50;99.90
12438;DHT22;6283;51.330;12.374;2023-08-20T08:12:02;24.50;99.90
12438;DHT22;6283;51.330;12.374;2023-08-20T08:14:28;24.60;99.90
12438;DHT22;6283;51.330;12.374;2023-08-20T08:16:53;24.70;99.90
12438;DHT22;6283;51.330;12.374;2023-08-20T08:19:20;24.80;99.90
12438;DHT22;6283;51.330;12.374;2023-08-20T08:21:46;25.00;99.90
12438;DHT22;6283;51.330;12.374;2023-08-20T08:24:13;25.10;99.90
12438;DHT22;6283;51.330;12.374;2023-08-20T08:26:39;25.20;99.90
12438;DHT22;6283;51.330;12.374;2023-08-20T08:29:06;25.20;99.90
12438;DHT22;6283;51.330;12.374;2023-08-20T08:31:32;25.20;99.90
12438;DHT22;6283;51.330;12.374;2023-08-20T08:33:58;25.30;99.90
12438;DHT22;6283;51.330;12.374;2023-08-20T08:36:24;25.40;99.90
12438;DHT22;6283;51.330;12.374;2023-08-20T08:38:53;25.50;99.90
12438;DHT22;6283;51.330;12.374;2023-08-20T08:41:21;25.50;99.90
12438;DHT22;6283;51.330;12.374;2023-08-20T08:43:49;25.60;99.90
12438;DHT22;6283;51.330;12.374;2023-08-20T08:46:15;25.60;99.90
12438;DHT22;6283;51.330;12.374;2023-08-20T08:48:45;25.70;99.90
12438;DHT22;6283;51.330;12.374;2023-08-20T08:51:13;25.70;99.90
12438;DHT22;6283;51.330;12.374;2023-08-20T08:53:38;25.80;99.90
12438;DHT22;6283;51.330;12.374;2023-08-20T08:56:04;25.90;99.90
12438;DHT22;6283;51.330;12.374;2023-08-20T08:58:33;25.90;99.90
12438;DHT22;6283;51.330;12.374;2023-08-20T09:00:59;25.80;99.90
12438;DHT22;6283;51.330;12.374;2023-08-20T09:03:25;25.90;99.90
12438;DHT22;6283;51.330;12.374;2023-08-20T09:05:56;25.90;99.90
12438;DHT22;6283;51.330;12.374;2023-08-20T09:08:30;25.90;99.90
12438;DHT22;6283;51.330;12.374;2023-08-20T09:10:57;25.90;99.90
12438;DHT22;6283;51.330;12.374;2023-08-20T09:13:43;26.00;99.90
12438;DHT22;6283;51.330;12.374;2023-08-20T09:16:12;26.00;99.90
12438;DHT22;6283;51.330;12.374;2023-08-20T09:18:39;26.10;99.90
12438;DHT22;6283;51.330;12.374;2023-08-20T09:21:10;26.20;88.10
12438;DHT22;6283;51.330;12.374;2023-08-20T09:23:37;26.50;89.00
12438;DHT22;6283;51.330;12.374;2023-08-20T09:26:04;26.70;72.40
12438;DHT22;6283;51.330;12.374;2023-08-20T09:28:44;26.80;32.40
12438;DHT22;6283;51.330;12.374;2023-08-20T09:31:10;27.00;17.20
12438;DHT22;6283;51.330;12.374;2023-08-20T09:33:36;27.10;7.20
12438;DHT22;6283;51.330;12.374;2023-08-20T09:36:04;27.20;4.90
12438;DHT22;6283;51.330;12.374;2023-08-20T09:38:36;27.40;1.00
12438;DHT22;6283;51.330;12.374;2023-08-20T09:41:05;27.50;1.00
12438;DHT22;6283;51.330;12.374;2023-08-20T09:43:37;27.60;1.00
12438;DHT22;6283;51.330;12.374;2023-08-20T09:46:04;27.50;1.00
12438;DHT22;6283;51.330;12.374;2023-08-20T09:48:34;27.30;1.00
12438;DHT22;6283;51.330;12.374;2023-08-20T09:51:04;27.10;1.00
12438;DHT22;6283;51.330;12.374;2023-08-20T09:54:02;27.10;1.00
12438;DHT22;6283;51.330;12.374;2023-08-20T09:56:38;27.10;1.00
12438;DHT22;6283;51.330;12.374;2023-08-20T09:59:04;27.00;1.00
12438;DHT22;6283;51.330;12.374;2023-08-20T10:01:30;26.90;1.00
12438;DHT22;6283;51.330;12.374;2023-08-20T10:03:56;26.90;1.00
12438;DHT22;6283;51.330;12.374;2023-08-20T10:06:23;26.90;1.00
12438;DHT22;6283;51.330;12.374;2023-08-20T10:08:51;27.10;1.00
12438;DHT22;6283;51.330;12.374;2023-08-20T10:11:16;27.20;1.00
12438;DHT22;6283;51.330;12.374;2023-08-20T10:13:42;27.30;1.00
12438;DHT22;6283;51.330;12.374;2023-08-20T10:16:08;27.40;1.00
12438;DHT22;6283;51.330;12.374;2023-08-20T10:18:37;27.40;1.00
12438;DHT22;6283;51.330;12.374;2023-08-20T10:21:04;27.40;1.00
12438;DHT22;6283;51.330;12.374;2023-08-20T10:23:30;27.50;1.00
12438;DHT22;6283;51.330;12.374;2023-08-20T10:26:07;27.50;1.00
12438;DHT22;6283;51.330;12.374;2023-08-20T10:28:34;27.60;1.00
12438;DHT22;6283;51.330;12.374;2023-08-20T10:31:13;27.80;1.00
12438;DHT22;6283;51.330;12.374;2023-08-20T10:36:20;28.00;1.00
12438;DHT22;6283;51.330;12.374;2023-08-20T10:38:49;28.10;1.00
12438;DHT22;6283;51.330;12.374;2023-08-20T10:41:15;28.10;1.00
12438;DHT22;6283;51.330;12.374;2023-08-20T10:43:47;28.20;1.00
12438;DHT22;6283;51.330;12.374;2023-08-20T10:46:24;28.20;1.00
12438;DHT22;6283;51.330;12.374;2023-08-20T10:48:56;28.20;1.00
12438;DHT22;6283;51.330;12.374;2023-08-20T10:51:35;28.20;1.00
12438;DHT22;6283;51.330;12.374;2023-08-20T10:56:47;28.30;1.00
12438;DHT22;6283;51.330;12.374;2023-08-20T10:59:26;28.40;1.00
12438;DHT22;6283;51.330;12.374;2023-08-20T11:01:54;28.50;1.00
12438;DHT22;6283;51.330;12.374;2023-08-20T11:04:25;28.50;1.00
12438;DHT22;6283;51.330;12.374;2023-08-20T11:06:54;28.60;1.00
12438;DHT22;6283;51.330;12.374;2023-08-20T11:09:29;28.70;1.00
12438;DHT22;6283;51.330;12.374;2023-08-20T11:11:55;28.70;1.00
12438;DHT22;6283;51.330;12.374;2023-08-20T11:14:21;28.70;1.00
12438;DHT22;6283;51.330;12.374;2023-08-20T11:16:48;28.80;1.00
12438;DHT22;6283;51.330;12.374;2023-08-20T11:19:14;28.90;1.00
12438;DHT22;6283;51.330;12.374;2023-08-20T11:21:42;28.90;1.00
12438;DHT22;6283;51.330;12.374;2023-08-20T11:24:08;28.80;1.00
12438;DHT22;6283;51.330;12.374;2023-08-20T11:26:35;28.90;1.00
12438;DHT22;6283;51.330;12.374;2023-08-20T11:29:05;29.00;1.00
12438;DHT22;6283;51.330;12.374;2023-08-20T11:31:31;29.00;1.00
12438;DHT22;6283;51.330;12.374;2023-08-20T11:33:57;29.10;1.00
12438;DHT22;6283;51.330;12.374;2023-08-20T11:36:23;29.10;1.00
12438;DHT22;6283;51.330;12.374;2023-08-20T11:38:52;29.30;1.00
12438;DHT22;6283;51.330;12.374;2023-08-20T11:41:19;29.60;1.00
12438;DHT22;6283;51.330;12.374;2023-08-20T11:43:46;29.80;1.00
12438;DHT22;6283;51.330;12.374;2023-08-20T11:46:15;30.10;1.00
12438;DHT22;6283;51.330;12.374;2023-08-20T11:51:26;30.40;1.00
12438;DHT22;6283;51.330;12.374;2023-08-20T11:53:52;30.50;1.00
12438;DHT22;6283;51.330;12.374;2023-08-20T11:56:17;30.80;1.00
12438;DHT22;6283;51.330;12.374;2023-08-20T11:58:43;30.90;1.00
12438;DHT22;6283;51.330;12.374;2023-08-20T12:01:09;31.10;1.00
12438;DHT22;6283;51.330;12.374;2023-08-20T12:03:37;31.30;1.00
12438;DHT22;6283;51.330;12.374;2023-08-20T12:06:19;31.50;1.00
12438;DHT22;6283;51.330;12.374;2023-08-20T12:08:45;31.60;1.00
12438;DHT22;6283;51.330;12.374;2023-08-20T12:11:10;31.50;1.00
12438;DHT22;6283;51.330;12.374;2023-08-20T12:13:36;31.30;1.00
12438;DHT22;6283;51.330;12.374;2023-08-20T12:16:02;31.20;1.00
12438;DHT22;6283;51.330;12.374;2023-08-20T12:18:27;31.30;1.00
12438;DHT22;6283;51.330;12.374;2023-08-20T12:20:54;31.50;1.00
12438;DHT22;6283;51.330;12.374;2023-08-20T12:23:20;31.70;1.00
12438;DHT22;6283;51.330;12.374;2023-08-20T12:25:50;32.00;1.00
12438;DHT22;6283;51.330;12.374;2023-08-20T12:28:16;32.30;1.00
12438;DHT22;6283;51.330;12.374;2023-08-20T12:30:43;32.60;1.00
12438;DHT22;6283;51.330;12.374;2023-08-20T12:33:09;32.90;1.00
12438;DHT22;6283;51.330;12.374;2023-08-20T12:35:34;33.20;1.00
12438;DHT22;6283;51.330;12.374;2023-08-20T12:38:00;33.40;1.00
12438;DHT22;6283;51.330;12.374;2023-08-20T12:40:26;33.50;1.00
12438;DHT22;6283;51.330;12.374;2023-08-20T12:42:52;33.40;1.00
12438;DHT22;6283;51.330;12.374;2023-08-20T12:45:17;33.40;1.00
12438;DHT22;6283;51.330;12.374;2023-08-20T12:47:43;33.40;1.00
12438;DHT22;6283;51.330;12.374;2023-08-20T12:50:09;33.40;1.00
12438;DHT22;6283;51.330;12.374;2023-08-20T12:52:35;33.50;1.00
12438;DHT22;6283;51.330;12.374;2023-08-20T12:55:01;33.60;1.00
12438;DHT22;6283;51.330;12.374;2023-08-20T12:57:28;33.90;1.00
12438;DHT22;6283;51.330;12.374;2023-08-20T12:59:53;34.10;1.00
12438;DHT22;6283;51.330;12.374;2023-08-20T13:02:19;33.90;1.00
12438;DHT22;6283;51.330;12.374;2023-08-20T13:04:46;33.80;1.00
12438;DHT22;6283;51.330;12.374;2023-08-20T13:07:12;33.60;1.00
12438;DHT22;6283;51.330;12.374;2023-08-20T13:09:38;33.60;1.00
12438;DHT22;6283;51.330;12.374;2023-08-20T13:12:05;33.60;1.00
12438;DHT22;6283;51.330;12.374;2023-08-20T13:14:34;33.50;1.00
12438;DHT22;6283;51.330;12.374;2023-08-20T13:17:00;33.50;1.00
12438;DHT22;6283;51.330;12.374;2023-08-20T13:19:26;33.60;1.00
12438;DHT22;6283;51.330;12.374;2023-08-20T13:21:52;33.50;1.00
12438;DHT22;6283;51.330;12.374;2023-08-20T13:24:17;33.50;1.00
12438;DHT22;6283;51.330;12.374;2023-08-20T13:26:43;33.50;1.00
12438;DHT22;6283;51.330;12.374;2023-08-20T13:29:10;33.60;1.00
12438;DHT22;6283;51.330;12.374;2023-08-20T13:31:35;33.80;1.00
12438;DHT22;6283;51.330;12.374;2023-08-20T13:34:01;34.10;1.00
12438;DHT22;6283;51.330;12.374;2023-08-20T13:36:27;34.60;1.00
12438;DHT22;6283;51.330;12.374;2023-08-20T13:38:53;35.00;1.00
12438;DHT22;6283;51.330;12.374;2023-08-20T13:41:18;35.30;1.00
12438;DHT22;6283;51.330;12.374;2023-08-20T13:43:44;35.60;1.00
12438;DHT22;6283;51.330;12.374;2023-08-20T13:46:09;35.80;1.00
12438;DHT22;6283;51.330;12.374;2023-08-20T13:48:36;35.90;1.00
12438;DHT22;6283;51.330;12.374;2023-08-20T13:51:01;35.90;1.00
12438;DHT22;6283;51.330;12.374;2023-08-20T13:53:27;36.00;1.00
12438;DHT22;6283;51.330;12.374;2023-08-20T13:55:53;36.20;1.00
12438;DHT22;6283;51.330;12.374;2023-08-20T13:58:20;36.10;1.00
12438;DHT22;6283;51.330;12.374;2023-08-20T14:00:46;35.80;1.00
12438;DHT22;6283;51.330;12.374;2023-08-20T14:03:12;35.50;1.00
12438;DHT22;6283;51.330;12.374;2023-08-20T14:05:37;35.30;1.00
12438;DHT22;6283;51.330;12.374;2023-08-20T14:08:03;35.20;1.00
12438;DHT22;6283;51.330;12.374;2023-08-20T14:10:29;35.20;1.00
12438;DHT22;6283;51.330;12.374;2023-08-20T14:12:54;35.20;1.00
12438;DHT22;6283;51.330;12.374;2023-08-20T14:15:20;35.20;1.00
12438;DHT22;6283;51.330;12.374;2023-08-20T14:17:46;35.30;1.00
12438;DHT22;6283;51.330;12.374;2023-08-20T14:20:11;35.50;1.00
12438;DHT22;6283;51.330;12.374;2023-08-20T14:22:38;35.80;1.00
12438;DHT22;6283;51.330;12.374;2023-08-20T14:25:04;35.90;1.00
12438;DHT22;6283;51.330;12.374;2023-08-20T14:27:30;36.10;1.00
12438;DHT22;6283;51.330;12.374;2023-08-20T14:29:56;36.30;1.00
12438;DHT22;6283;51.330;12.374;2023-08-20T14:32:22;36.30;1.00
12438;DHT22;6283;51.330;12.374;2023-08-20T14:34:47;36.20;1.00
12438;DHT22;6283;51.330;12.374;2023-08-20T14:37:13;36.30;1.00
12438;DHT22;6283;51.330;12.374;2023-08-20T14:39:39;36.20;1.00
12438;DHT22;6283;51.330;12.374;2023-08-20T14:42:04;36.30;1.00
12438;DHT22;6283;51.330;12.374;2023-08-20T14:44:30;36.30;1.00
12438;DHT22;6283;51.330;12.374;2023-08-20T14:46:56;36.30;1.00
12438;DHT22;6283;51.330;12.374;2023-08-20T14:49:21;36.20;1.00
12438;DHT22;6283;51.330;12.374;2023-08-20T14:51:48;36.30;1.00
12438;DHT22;6283;51.330;12.374;2023-08-20T14:54:14;36.20;1.00
12438;DHT22;6283;51.330;12.374;2023-08-20T14:56:39;36.00;1.00
12438;DHT22;6283;51.330;12.374;2023-08-20T14:59:05;35.70;1.00
12438;DHT22;6283;51.330;12.374;2023-08-20T15:01:31;35.30;1.00
12438;DHT22;6283;51.330;12.374;2023-08-20T15:03:56;35.10;1.00
12438;DHT22;6283;51.330;12.374;2023-08-20T15:06:22;35.20;1.00
12438;DHT22;6283;51.330;12.374;2023-08-20T15:08:50;35.40;1.00
12438;DHT22;6283;51.330;12.374;2023-08-20T15:11:15;35.60;1.00
12438;DHT22;6283;51.330;12.374;2023-08-20T15:13:41;35.50;1.00
12438;DHT22;6283;51.330;12.374;2023-08-20T15:16:06;35.20;1.00
12438;DHT22;6283;51.330;12.374;2023-08-20T15:18:32;35.00;1.00
12438;DHT22;6283;51.330;12.374;2023-08-20T15:20:59;35.00;1.00
12438;DHT22;6283;51.330;12.374;2023-08-20T15:23:26;35.00;1.00
12438;DHT22;6283;51.330;12.374;2023-08-20T15:25:52;35.10;1.00
12438;DHT22;6283;51.330;12.374;2023-08-20T15:28:22;35.30;1.00
12438;DHT22;6283;51.330;12.374;2023-08-20T15:30:51;35.30;1.00
12438;DHT22;6283;51.330;12.374;2023-08-20T15:33:17;35.50;1.00
12438;DHT22;6283;51.330;12.374;2023-08-20T15:35:43;35.90;1.00
12438;DHT22;6283;51.330;12.374;2023-08-20T15:38:09;36.20;1.00
12438;DHT22;6283;51.330;12.374;2023-08-20T15:40:37;36.20;1.00
12438;DHT22;6283;51.330;12.374;2023-08-20T15:43:03;36.10;1.00
12438;DHT22;6283;51.330;12.374;2023-08-20T15:45:29;36.00;1.00
12438;DHT22;6283;51.330;12.374;2023-08-20T15:47:54;36.10;1.00
12438;DHT22;6283;51.330;12.374;2023-08-20T15:50:20;36.40;1.00
12438;DHT22;6283;51.330;12.374;2023-08-20T15:52:45;36.60;1.00